createdAt,value
2023-01-23T00:04:52.270Z,14.30
2023-01-23T00:09:54.460Z,15.38
2023-01-23T00:14:56.687Z,14.98
2023-01-23T00:19:59.661Z,13.90
2023-01-23T00:25:01.901Z,14.18
2023-01-23T00:30:04.961Z,13.90
2023-01-23T00:35:07.494Z,14.43
2023-01-23T00:40:10.435Z,13.27
2023-01-23T00:45:13.665Z,14.63
2023-01-23T00:50:16.149Z,13.50
2023-01-23T00:55:18.401Z,14.40
2023-01-23T01:00:20.912Z,14.40
2023-01-23T01:05:23.742Z,13.25
2023-01-23T01:10:29.784Z,14.35
2023-01-23T01:15:32.447Z,13.52
2023-01-23T01:20:34.744Z,13.93
2023-01-23T01:25:37.892Z,13.18
2023-01-23T01:30:41.395Z,13.20
2023-01-23T01:35:43.869Z,12.70
2023-01-23T01:40:46.194Z,13.25
2023-01-23T01:51:13.403Z,13.85
2023-01-23T01:56:17.603Z,15.00
2023-01-23T02:01:20.504Z,16.52
2023-01-23T02:06:22.863Z,13.15
2023-01-23T02:11:26.578Z,13.57
2023-01-23T02:16:32.909Z,14.48
2023-01-23T02:21:37.355Z,14.30
2023-01-23T02:26:42.535Z,14.60
2023-01-23T02:31:46.157Z,15.02
2023-01-23T02:36:50.334Z,15.75
2023-01-23T02:41:55.022Z,15.63
2023-01-23T02:47:08.775Z,15.30
2023-01-23T02:52:11.114Z,14.63
2023-01-23T02:57:14.482Z,16.42
2023-01-23T03:02:17.477Z,15.25
2023-01-23T03:07:19.823Z,16.17
2023-01-23T03:12:22.194Z,15.13
2023-01-23T03:17:25.044Z,16.27
2023-01-23T03:22:28.068Z,15.05
2023-01-23T03:27:30.487Z,14.68
2023-01-23T03:32:33.030Z,16.20
2023-01-23T03:37:35.509Z,13.90
2023-01-23T03:42:37.911Z,13.80
2023-01-23T03:47:42.446Z,14.43
2023-01-23T03:52:44.932Z,15.88
2023-01-23T03:57:47.262Z,15.50
2023-01-23T04:02:49.723Z,17.85
2023-01-23T04:07:53.127Z,17.42
2023-01-23T04:12:55.514Z,14.73
2023-01-23T04:17:58.806Z,16.95
2023-01-23T04:23:01.883Z,14.93
2023-01-23T04:28:05.699Z,16.85
2023-01-23T04:33:08.436Z,19.00
2023-01-23T04:38:12.416Z,17.67
2023-01-23T04:43:14.728Z,18.52
2023-01-23T04:48:21.385Z,18.58
2023-01-23T04:53:23.625Z,17.10
2023-01-23T04:58:33.212Z,20.00
2023-01-23T05:03:38.628Z,16.88
2023-01-23T05:08:40.980Z,15.13
2023-01-23T05:13:54.589Z,14.18
2023-01-23T05:18:57.006Z,15.02
2023-01-23T05:23:59.383Z,16.15
2023-01-23T05:29:01.696Z,16.55
2023-01-23T05:34:05.034Z,30.25
2023-01-23T05:39:08.341Z,15.70
2023-01-23T05:44:10.729Z,16.35
2023-01-23T05:49:23.483Z,23.60
2023-01-23T05:54:26.792Z,14.75
2023-01-23T05:59:29.270Z,23.00
2023-01-23T06:04:51.373Z,13.85
2023-01-23T06:10:00.407Z,14.90
2023-01-23T06:15:02.819Z,15.77
2023-01-23T06:20:05.784Z,18.10
2023-01-23T06:25:09.531Z,14.02
2023-01-23T06:30:12.480Z,13.95
2023-01-23T06:35:18.136Z,14.40
2023-01-23T06:40:21.219Z,14.27
2023-01-23T06:45:37.244Z,15.35
2023-01-23T06:50:42.083Z,14.60
2023-01-23T06:55:45.510Z,14.40
2023-01-23T07:00:49.743Z,15.50
2023-01-23T07:06:13.864Z,14.00
2023-01-23T07:11:16.355Z,16.23
2023-01-23T07:16:19.585Z,17.90
2023-01-23T07:21:21.907Z,13.75
2023-01-23T07:26:24.452Z,15.73
2023-01-23T07:31:27.515Z,15.52
2023-01-23T07:36:30.490Z,15.68
2023-01-23T07:41:32.783Z,18.15
2023-01-23T07:46:38.374Z,15.15
2023-01-23T07:51:40.829Z,17.98
2023-01-23T07:56:43.085Z,14.77
2023-01-23T08:01:45.353Z,18.45
2023-01-23T08:06:47.624Z,15.25
2023-01-23T08:11:52.543Z,14.07
2023-01-23T08:16:55.237Z,18.48
2023-01-23T08:21:57.419Z,18.45
2023-01-23T08:26:59.743Z,17.05
2023-01-23T08:32:02.194Z,17.67
2023-01-23T08:37:04.775Z,14.10
2023-01-23T08:42:07.453Z,15.15
2023-01-23T08:47:09.807Z,15.40
2023-01-23T08:52:12.196Z,15.68
2023-01-23T08:57:14.607Z,18.17
2023-01-23T09:02:17.118Z,19.10
2023-01-23T09:07:19.448Z,15.20
2023-01-23T09:12:21.877Z,13.77
2023-01-23T09:17:24.091Z,16.33
2023-01-23T09:22:26.509Z,15.05
2023-01-23T09:27:28.764Z,13.98
2023-01-23T09:32:31.140Z,16.95
2023-01-23T09:37:58.502Z,14.70
2023-01-23T09:43:12.488Z,16.02
2023-01-23T09:53:31.203Z,14.85
2023-01-23T09:58:46.947Z,14.07
2023-01-23T10:03:49.424Z,14.32
2023-01-23T10:35:47.547Z,15.27
2023-01-23T10:41:09.826Z,14.40
2023-01-23T11:02:17.434Z,17.25
2023-01-23T11:07:26.445Z,15.45
2023-01-23T11:12:31.253Z,16.50
2023-01-23T11:17:33.907Z,17.17
2023-01-23T11:22:41.035Z,19.15
2023-01-23T11:27:58.467Z,23.02
2023-01-23T11:38:52.154Z,19.00
2023-01-23T11:43:55.307Z,16.88
2023-01-23T11:59:57.471Z,18.23
2023-01-23T12:10:39.787Z,18.55
2023-01-23T12:21:08.713Z,20.00
2023-01-23T12:41:54.090Z,18.92
2023-01-23T12:52:15.657Z,20.10
2023-01-23T12:57:52.824Z,23.90
2023-01-23T13:08:38.109Z,24.80
2023-01-23T13:13:46.784Z,23.90
2023-01-23T13:19:22.005Z,24.45
2023-01-23T13:25:06.149Z,22.48
2023-01-23T14:24:03.881Z,20.73
2023-01-23T14:29:22.949Z,21.67
2023-01-23T14:34:26.884Z,25.80
2023-01-23T14:39:32.099Z,25.25
2023-01-23T14:44:45.832Z,29.45
2023-01-23T14:49:48.330Z,35.58
2023-01-23T14:54:54.106Z,25.95
2023-01-23T14:59:58.620Z,28.88
2023-01-23T15:15:34.112Z,23.95
2023-01-23T15:20:40.835Z,25.23
2023-01-23T15:25:43.182Z,25.02
2023-01-23T15:30:48.597Z,24.20
2023-01-23T15:35:51.130Z,21.98
2023-01-23T15:40:53.509Z,21.98
2023-01-23T15:45:55.953Z,22.45
2023-01-23T15:50:59.026Z,25.48
2023-01-23T15:56:02.165Z,22.45
2023-01-23T16:01:05.948Z,24.92
2023-01-23T16:06:21.135Z,22.90
2023-01-23T16:11:23.921Z,24.48
2023-01-23T16:16:26.297Z,23.63
2023-01-23T16:21:30.596Z,19.42
2023-01-23T16:26:34.052Z,21.15
2023-01-23T16:31:38.036Z,24.13
2023-01-23T16:36:40.373Z,20.05
2023-01-23T16:41:42.767Z,21.95
2023-01-23T16:46:46.088Z,22.85
2023-01-23T16:51:56.427Z,22.02
2023-01-23T16:56:58.958Z,22.42
2023-01-23T17:02:04.607Z,20.48
2023-01-23T17:07:14.712Z,18.88
2023-01-23T17:12:22.148Z,21.48
2023-01-23T17:17:34.736Z,16.80
2023-01-23T17:22:41.407Z,17.63
2023-01-23T17:27:45.779Z,16.13
2023-01-23T17:32:53.208Z,16.98
2023-01-23T17:37:58.019Z,15.13
2023-01-23T17:43:00.258Z,15.02
2023-01-23T17:48:02.637Z,15.13
2023-01-23T17:53:05.237Z,18.42
2023-01-23T17:58:07.997Z,15.55
2023-01-23T18:03:15.386Z,14.52
2023-01-23T18:08:19.956Z,14.60
2023-01-23T18:18:35.580Z,13.95
2023-01-23T18:23:38.394Z,12.93
2023-01-23T18:29:06.229Z,13.98
2023-01-23T18:45:00.375Z,14.45
2023-01-23T18:50:03.257Z,14.05
2023-01-23T19:00:37.643Z,14.25
2023-01-23T19:05:40.565Z,14.35
2023-01-23T19:10:49.260Z,13.13
2023-01-23T19:26:17.845Z,13.55
2023-01-23T19:31:23.610Z,12.30
2023-01-23T19:36:27.360Z,13.63
2023-01-23T19:41:46.391Z,13.02
2023-01-23T19:46:48.757Z,14.00
2023-01-23T19:51:51.072Z,13.75
2023-01-23T19:56:53.285Z,14.48
2023-01-23T20:01:55.656Z,14.13
2023-01-23T20:06:58.553Z,12.70
2023-01-23T20:12:00.772Z,11.18
2023-01-23T20:17:29.022Z,11.50
2023-01-23T20:22:31.735Z,11.68
2023-01-23T20:27:34.695Z,12.90
2023-01-23T20:32:37.019Z,11.98
2023-01-23T20:37:39.295Z,12.82
2023-01-23T20:42:41.907Z,13.90
2023-01-23T20:47:44.058Z,36.33
2023-01-23T20:53:06.186Z,13.93
2023-01-23T20:58:28.258Z,12.70
2023-01-23T21:03:30.995Z,12.90
2023-01-23T21:08:34.527Z,12.52
2023-01-23T21:13:37.789Z,12.05
2023-01-23T21:18:44.697Z,13.00
2023-01-23T21:23:49.369Z,13.02
2023-01-23T21:28:53.509Z,13.32
2023-01-23T21:33:56.353Z,11.80
2023-01-23T21:38:59.396Z,12.88
2023-01-23T21:44:01.597Z,12.43
2023-01-23T21:49:04.242Z,11.85
2023-01-23T21:54:06.614Z,12.25
2023-01-23T21:59:08.910Z,12.30
2023-01-23T22:04:14.504Z,13.48
2023-01-23T22:09:18.455Z,13.82
2023-01-23T22:14:21.048Z,12.93
2023-01-23T22:19:25.668Z,12.75
2023-01-23T22:24:28.269Z,12.45
2023-01-23T22:29:30.474Z,12.93
2023-01-23T22:34:32.866Z,12.57
2023-01-23T22:39:35.107Z,12.85
2023-01-23T22:44:37.452Z,11.77
2023-01-23T22:49:39.809Z,12.40
2023-01-23T22:54:42.107Z,12.82
2023-01-23T22:59:44.345Z,12.75
2023-01-23T23:04:49.916Z,12.93
2023-01-23T23:09:52.198Z,12.57
2023-01-23T23:14:54.434Z,12.63
2023-01-23T23:19:56.732Z,12.07
2023-01-23T23:24:58.968Z,12.55
2023-01-23T23:30:01.177Z,13.35
2023-01-23T23:35:03.528Z,12.75
2023-01-23T23:40:06.375Z,12.18
2023-01-23T23:45:09.063Z,12.55
2023-01-23T23:50:11.901Z,12.38
2023-01-23T23:55:14.655Z,12.90
